Time;durP1;ratioP1;P1;durP2;ratioP2;P2;SDS_P1;SDS_P2;PMS_P1;PMS_P2;Temp;Humidity;BMP_temperature;BMP_pressure;BME280_temperature;BME280_humidity;BME280_pressure;Samples;Min_cycle;Max_cycle;Signal;HPM_P1;HPM_P2
2022/05/02 00:01:38;;;;;;;3.00;2.60;;;9.20;99.90;;;;;;4991866;28;20109;-54
2022/05/02 00:04:03;;;;;;;2.50;2.30;;;9.20;99.90;;;;;;4991921;28;20426;-55
2022/05/02 00:06:29;;;;;;;2.58;2.38;;;9.10;99.90;;;;;;4991920;28;20426;-52
2022/05/02 00:08:54;;;;;;;2.50;2.17;;;9.10;99.90;;;;;;4992082;28;20105;-53
2022/05/02 00:11:20;;;;;;;2.95;2.20;;;9.10;99.90;;;;;;4991506;28;20053;-52
2022/05/02 00:13:45;;;;;;;3.65;2.05;;;9.10;99.90;;;;;;4981839;28;20470;-56
2022/05/02 00:16:11;;;;;;;2.45;2.25;;;9.00;99.90;;;;;;4991791;28;20065;-55
2022/05/02 00:18:37;;;;;;;3.03;2.33;;;9.00;99.90;;;;;;4991969;28;20046;-55
2022/05/02 00:21:02;;;;;;;2.47;2.25;;;8.90;99.90;;;;;;4991962;28;20108;-54
2022/05/02 00:23:29;;;;;;;2.35;2.15;;;8.90;99.90;;;;;;4991307;28;20554;-56
2022/05/02 00:25:54;;;;;;;3.20;2.10;;;8.90;99.90;;;;;;4974009;28;20038;-54
2022/05/02 00:28:20;;;;;;;3.00;2.40;;;8.90;99.90;;;;;;4991588;28;20026;-58
2022/05/02 00:30:46;;;;;;;3.15;2.22;;;8.90;99.90;;;;;;4991436;28;20497;-55
2022/05/02 00:33:12;;;;;;;3.15;2.40;;;8.90;99.90;;;;;;4991100;28;20422;-55
2022/05/02 00:35:38;;;;;;;2.33;2.08;;;8.80;99.90;;;;;;4989582;28;20037;-53
2022/05/02 00:38:05;;;;;;;2.20;2.05;;;8.80;99.90;;;;;;5010570;28;20030;-52
2022/05/02 00:40:32;;;;;;;3.30;2.45;;;8.80;99.90;;;;;;4974288;28;20462;-52
2022/05/02 00:42:58;;;;;;;3.38;2.10;;;8.80;99.90;;;;;;4991150;28;20483;-56
2022/05/02 00:45:23;;;;;;;3.50;2.38;;;8.80;99.90;;;;;;4991162;28;20088;-54
2022/05/02 00:47:53;;;;;;;3.17;2.30;;;8.80;99.90;;;;;;4991449;28;20623;-56
2022/05/02 00:50:30;;;;;;;2.60;2.40;;;8.80;99.90;;;;;;4991641;28;20031;-55
2022/05/02 00:52:56;;;;;;;5.22;2.88;;;8.80;99.90;;;;;;4990631;28;20030;-57
2022/05/02 00:55:22;;;;;;;3.60;2.60;;;8.70;99.90;;;;;;4990373;28;20038;-55
2022/05/02 00:57:47;;;;;;;4.38;2.55;;;8.70;99.90;;;;;;4987296;28;20752;-57
2022/05/02 01:00:13;;;;;;;2.88;2.40;;;8.60;99.90;;;;;;4968466;28;20050;-54
2022/05/02 01:02:39;;;;;;;3.20;2.50;;;8.60;99.90;;;;;;4982447;28;20644;-54
2022/05/02 01:05:05;;;;;;;3.17;2.15;;;8.60;99.90;;;;;;4990282;28;20390;-55
2022/05/02 01:07:30;;;;;;;3.33;2.47;;;8.60;99.90;;;;;;4990523;28;20522;-55
2022/05/02 01:09:56;;;;;;;2.63;2.42;;;8.50;99.90;;;;;;4990570;28;20023;-55
2022/05/02 01:12:24;;;;;;;2.60;2.20;;;8.40;99.90;;;;;;4990264;28;20045;-55
2022/05/02 01:14:55;;;;;;;3.33;2.80;;;8.40;99.90;;;;;;4973227;28;20030;-55
2022/05/02 01:17:21;;;;;;;2.50;2.30;;;8.20;99.90;;;;;;4991035;28;20057;-59
2022/05/02 01:19:47;;;;;;;2.72;2.50;;;8.10;99.90;;;;;;4990789;28;20065;-54
2022/05/02 01:22:13;;;;;;;3.95;2.65;;;8.00;99.90;;;;;;4990435;28;20022;-54
2022/05/02 01:24:44;;;;;;;3.75;2.80;;;7.90;99.90;;;;;;4990606;28;20085;-57
2022/05/02 01:27:11;;;;;;;2.80;2.55;;;7.80;99.90;;;;;;4990943;28;20073;-57
2022/05/02 01:29:40;;;;;;;2.75;2.55;;;7.70;99.90;;;;;;4973324;28;20034;-53
2022/05/02 01:32:07;;;;;;;3.42;2.55;;;7.60;99.90;;;;;;4990352;28;20026;-57
2022/05/02 01:34:40;;;;;;;5.32;2.85;;;7.60;99.90;;;;;;4990166;28;20022;-53
2022/05/02 01:37:07;;;;;;;5.28;3.08;;;7.50;99.90;;;;;;4990262;28;20073;-53
2022/05/02 01:39:32;;;;;;;3.22;2.92;;;7.40;99.90;;;;;;4996965;28;20105;-56
2022/05/02 01:42:06;;;;;;;3.72;2.50;;;7.40;99.90;;;;;;5007896;28;20733;-54
2022/05/02 01:44:32;;;;;;;4.13;2.75;;;7.40;99.90;;;;;;4990449;28;20025;-54
2022/05/02 01:46:58;;;;;;;3.10;2.72;;;7.30;99.90;;;;;;4990558;28;20121;-55
2022/05/02 01:49:24;;;;;;;3.15;2.60;;;7.30;99.90;;;;;;4990556;28;20151;-52
2022/05/02 01:51:50;;;;;;;4.00;2.67;;;7.20;99.90;;;;;;4987769;28;20031;-57
2022/05/02 01:54:17;;;;;;;6.15;2.83;;;7.20;99.90;;;;;;4989456;28;20065;-54
2022/05/02 01:56:43;;;;;;;3.35;3.05;;;7.10;99.90;;;;;;4972344;28;20034;-54
2022/05/02 01:59:09;;;;;;;3.55;3.03;;;7.10;99.90;;;;;;4985889;28;20105;-55
2022/05/02 02:01:35;;;;;;;4.15;3.15;;;7.10;99.90;;;;;;4989928;28;20106;-56
2022/05/02 02:04:01;;;;;;;2.95;2.67;;;7.00;99.90;;;;;;4972917;28;20058;-54
2022/05/02 02:06:27;;;;;;;3.75;2.78;;;7.00;99.90;;;;;;4990403;28;20045;-56
2022/05/02 02:08:53;;;;;;;4.00;2.97;;;7.00;99.90;;;;;;4990285;28;20034;-56
2022/05/02 02:11:19;;;;;;;3.45;2.63;;;6.90;99.90;;;;;;4989885;28;20077;-56
2022/05/02 02:13:45;;;;;;;5.72;3.03;;;6.90;99.90;;;;;;4989942;28;20073;-54
2022/05/02 02:16:11;;;;;;;4.25;3.08;;;6.90;99.90;;;;;;4989884;28;20027;-55
2022/05/02 02:18:40;;;;;;;3.58;3.10;;;6.90;99.90;;;;;;4989895;28;20407;-56
2022/05/02 02:21:09;;;;;;;3.08;2.80;;;6.90;99.90;;;;;;4989885;28;20026;-54
2022/05/02 02:23:36;;;;;;;3.42;3.13;;;6.90;99.90;;;;;;4989380;28;20026;-55
2022/05/02 02:26:04;;;;;;;4.57;3.20;;;6.90;99.90;;;;;;4989898;28;20201;-56
2022/05/02 02:28:29;;;;;;;4.00;2.80;;;6.90;99.90;;;;;;4989822;28;20022;-53
2022/05/02 02:30:55;;;;;;;8.07;3.45;;;6.90;99.90;;;;;;4990086;28;20140;-57
2022/05/02 02:33:21;;;;;;;4.30;3.20;;;6.90;99.90;;;;;;4989333;28;20041;-56
2022/05/02 02:35:46;;;;;;;4.13;3.10;;;6.90;99.90;;;;;;4989457;28;20038;-54
2022/05/02 02:38:12;;;;;;;3.53;3.00;;;6.90;99.90;;;;;;4989625;28;20019;-54
2022/05/02 02:40:39;;;;;;;3.65;2.95;;;6.90;99.90;;;;;;4989925;28;20030;-54
2022/05/02 02:43:06;;;;;;;4.20;3.42;;;6.90;99.90;;;;;;4989211;28;20018;-55
2022/05/02 02:45:32;;;;;;;4.28;3.10;;;6.90;99.90;;;;;;4994048;28;20014;-55
2022/05/02 02:47:57;;;;;;;3.53;2.95;;;6.80;99.90;;;;;;5009258;28;20034;-54
2022/05/02 02:50:23;;;;;;;3.33;2.97;;;6.70;99.90;;;;;;4976608;28;20077;-57
2022/05/02 02:52:48;;;;;;;5.25;3.65;;;6.70;99.90;;;;;;4992636;28;20045;-54
2022/05/02 02:55:14;;;;;;;3.85;3.47;;;6.60;99.90;;;;;;4993261;28;20026;-54
2022/05/02 02:57:39;;;;;;;4.95;3.35;;;6.60;99.90;;;;;;4975696;28;20406;-54
2022/05/02 03:00:09;;;;;;;3.25;2.75;;;6.50;99.90;;;;;;4993215;28;20054;-54
2022/05/02 03:02:42;;;;;;;3.25;2.95;;;6.50;99.90;;;;;;4993181;28;20104;-52
2022/05/02 03:07:52;;;;;;;5.80;3.50;;;6.40;99.90;;;;;;4991837;28;20037;-54
2022/05/02 03:10:18;;;;;;;3.53;3.17;;;6.30;99.90;;;;;;4992974;28;20034;-53
2022/05/02 03:12:44;;;;;;;4.03;3.58;;;6.30;99.90;;;;;;4992798;28;20458;-53
2022/05/02 03:15:11;;;;;;;4.80;3.58;;;6.20;99.90;;;;;;4992844;28;20043;-51
2022/05/02 03:17:36;;;;;;;4.47;3.33;;;6.20;99.90;;;;;;5006057;28;20101;-53
2022/05/02 03:20:02;;;;;;;3.35;2.88;;;6.20;99.90;;;;;;5012738;28;20410;-53
2022/05/02 03:22:28;;;;;;;3.72;3.35;;;6.20;99.90;;;;;;5004630;28;20030;-54
2022/05/02 03:24:53;;;;;;;3.85;3.45;;;6.20;99.90;;;;;;4993384;28;20474;-53
2022/05/02 03:27:19;;;;;;;6.68;3.50;;;6.20;99.90;;;;;;4993290;28;20445;-53
2022/05/02 03:29:44;;;;;;;4.55;3.50;;;6.20;99.90;;;;;;4993174;28;20479;-55
2022/05/02 03:32:10;;;;;;;4.35;3.10;;;6.10;99.90;;;;;;4974668;28;20042;-54
2022/05/02 03:34:36;;;;;;;3.83;3.35;;;6.10;99.90;;;;;;4992855;28;20065;-55
2022/05/02 03:37:01;;;;;;;5.82;3.78;;;6.10;99.90;;;;;;4992910;28;20038;-54
2022/05/02 03:39:27;;;;;;;3.78;3.38;;;6.10;99.90;;;;;;4993175;28;20054;-53
2022/05/02 03:41:52;;;;;;;3.85;3.45;;;6.00;99.90;;;;;;4992241;28;20556;-55
2022/05/02 03:44:18;;;;;;;3.88;3.47;;;6.00;99.90;;;;;;4992867;28;20426;-52
2022/05/02 03:46:44;;;;;;;4.18;3.78;;;6.00;99.90;;;;;;4992581;28;20479;-54
2022/05/02 03:49:09;;;;;;;6.28;3.80;;;5.90;99.90;;;;;;4976581;28;20065;-51
2022/05/02 03:51:35;;;;;;;6.00;3.47;;;5.90;99.90;;;;;;4994295;28;20030;-53
2022/05/02 03:54:00;;;;;;;4.18;3.63;;;5.80;99.90;;;;;;5006037;28;20455;-54
2022/05/02 03:56:26;;;;;;;4.38;3.60;;;5.80;99.90;;;;;;4992572;28;20447;-57
2022/05/02 03:58:52;;;;;;;9.05;4.22;;;5.80;99.90;;;;;;4991930;28;20086;-56
2022/05/02 04:01:18;;;;;;;3.95;3.53;;;5.70;99.90;;;;;;4974857;28;20506;-56
2022/05/02 04:03:43;;;;;;;4.13;3.33;;;5.70;99.90;;;;;;4992334;28;20487;-54
2022/05/02 04:06:09;;;;;;;5.07;3.80;;;5.60;99.90;;;;;;4992768;28;20031;-55
2022/05/02 04:08:35;;;;;;;7.72;3.63;;;5.60;99.90;;;;;;4992069;28;20084;-56
2022/05/02 04:11:00;;;;;;;5.78;3.85;;;5.60;99.90;;;;;;4992093;28;20494;-56
2022/05/02 04:13:26;;;;;;;6.05;4.15;;;5.50;99.90;;;;;;4991349;28;20125;-55
2022/05/02 04:15:51;;;;;;;4.60;3.47;;;5.50;99.90;;;;;;4974824;28;20030;-57
2022/05/02 04:18:17;;;;;;;4.00;3.60;;;5.50;99.90;;;;;;4992156;28;20038;-56
2022/05/02 04:20:43;;;;;;;5.22;3.83;;;5.50;99.90;;;;;;4974434;28;20030;-56
2022/05/02 04:23:09;;;;;;;6.32;3.78;;;5.50;99.90;;;;;;4974128;28;20461;-56
2022/05/02 04:25:34;;;;;;;4.72;3.75;;;5.50;99.90;;;;;;4992060;28;20089;-56
2022/05/02 04:28:00;;;;;;;6.32;4.05;;;5.50;99.90;;;;;;4991438;28;20097;-56
2022/05/02 04:30:25;;;;;;;7.45;3.97;;;5.50;99.90;;;;;;4992040;28;20043;-56
2022/05/02 04:32:51;;;;;;;5.90;4.30;;;5.50;99.90;;;;;;4991083;28;20042;-54
2022/05/02 04:35:17;;;;;;;6.25;4.00;;;5.40;99.90;;;;;;4990377;28;20038;-57
2022/05/02 04:37:42;;;;;;;5.20;4.45;;;5.40;99.90;;;;;;4990718;28;20037;-54
2022/05/02 04:40:08;;;;;;;6.63;4.45;;;5.50;99.90;;;;;;4972973;28;20482;-55
2022/05/02 04:42:34;;;;;;;5.72;3.88;;;5.40;99.90;;;;;;4991404;28;20018;-56
2022/05/02 04:44:59;;;;;;;5.78;3.38;;;5.50;99.90;;;;;;4991692;28;20037;-55
2022/05/02 04:47:25;;;;;;;6.38;4.88;;;5.50;99.90;;;;;;4991301;28;20443;-54
2022/05/02 04:49:50;;;;;;;6.07;3.67;;;5.50;99.90;;;;;;4991261;28;20514;-56
2022/05/02 04:52:16;;;;;;;6.85;4.50;;;5.50;99.90;;;;;;4990749;28;20074;-54
2022/05/02 04:54:41;;;;;;;5.03;4.10;;;5.50;99.90;;;;;;5002509;28;20073;-54
2022/05/02 04:57:07;;;;;;;5.53;4.55;;;5.50;99.90;;;;;;5005997;28;20108;-55
2022/05/02 04:59:32;;;;;;;5.13;4.05;;;5.50;99.90;;;;;;4991379;28;20069;-56
2022/05/02 05:01:58;;;;;;;6.80;4.70;;;5.50;99.90;;;;;;4990693;28;20048;-54
2022/05/02 05:04:24;;;;;;;10.55;4.97;;;5.50;99.90;;;;;;4991015;28;20030;-56
2022/05/02 05:06:50;;;;;;;6.13;4.25;;;5.50;99.90;;;;;;4991238;28;20066;-57
2022/05/02 05:09:16;;;;;;;6.35;4.50;;;5.60;99.90;;;;;;4988409;28;20112;-54
2022/05/02 05:11:55;;;;;;;10.73;5.57;;;5.60;99.90;;;;;;4989989;28;20066;-52
2022/05/02 05:17:45;;;;;;;6.80;4.80;;;5.70;99.90;;;;;;4988878;28;20049;-53
2022/05/02 05:20:34;;;;;;;10.13;5.43;;;5.70;99.90;;;;;;4989303;28;20422;-51
2022/05/02 05:23:04;;;;;;;7.25;4.70;;;5.80;99.90;;;;;;4990477;28;20049;-54
2022/05/02 05:25:59;;;;;;;5.85;4.60;;;5.80;99.90;;;;;;4990692;28;20036;-52
2022/05/02 05:28:51;;;;;;;8.13;4.57;;;5.90;99.90;;;;;;4967057;28;20134;-53
2022/05/02 05:31:17;;;;;;;7.07;5.10;;;6.00;99.90;;;;;;4989028;28;20030;-51
2022/05/02 05:34:20;;;;;;;7.18;4.53;;;6.10;99.90;;;;;;4990098;28;20418;-58
2022/05/02 05:36:57;;;;;;;6.15;4.88;;;6.20;99.90;;;;;;4990218;28;20133;-54
2022/05/02 05:39:42;;;;;;;8.52;5.47;;;6.20;99.90;;;;;;4975615;28;20072;-52
2022/05/02 05:42:25;;;;;;;6.18;4.63;;;6.40;99.90;;;;;;4989862;28;20061;-54
2022/05/02 05:45:09;;;;;;;7.25;4.53;;;6.50;99.90;;;;;;4990312;28;20041;-54
2022/05/02 05:47:43;;;;;;;5.60;4.65;;;6.60;99.90;;;;;;4990387;28;20042;-54
2022/05/02 05:50:24;;;;;;;5.10;4.47;;;6.70;99.90;;;;;;4990545;28;20030;-57
2022/05/02 05:53:01;;;;;;;11.20;4.53;;;6.80;99.90;;;;;;4989875;28;20113;-53
2022/05/02 05:55:35;;;;;;;5.53;4.15;;;7.00;99.90;;;;;;4989796;28;20035;-52
2022/05/02 05:58:11;;;;;;;6.53;4.20;;;7.10;99.90;;;;;;4990414;28;20133;-55
2022/05/02 06:00:43;;;;;;;3.90;3.33;;;7.20;99.90;;;;;;4990785;28;20026;-53
2022/05/02 06:03:14;;;;;;;4.70;4.25;;;7.30;99.90;;;;;;4989804;28;20746;-56
2022/05/02 06:05:49;;;;;;;4.45;4.05;;;7.40;99.90;;;;;;4990140;28;20031;-52
2022/05/02 06:08:16;;;;;;;4.63;3.47;;;7.50;99.90;;;;;;4971047;28;20030;-57
2022/05/02 06:10:46;;;;;;;6.88;3.65;;;7.60;99.90;;;;;;4990170;28;20034;-55
2022/05/02 06:13:15;;;;;;;4.93;4.20;;;7.80;99.90;;;;;;4989717;28;20512;-55
2022/05/02 06:18:34;;;;;;;4.88;3.20;;;8.10;99.90;;;;;;4989638;28;20040;-51
2022/05/02 06:21:04;;;;;;;6.32;3.35;;;8.40;99.90;;;;;;4989737;28;20027;-55
2022/05/02 06:23:38;;;;;;;8.68;4.15;;;8.60;99.90;;;;;;4989843;28;20034;-53
2022/05/02 06:26:06;;;;;;;4.63;3.58;;;8.90;99.90;;;;;;4989534;28;20537;-53
2022/05/02 06:28:40;;;;;;;5.22;3.58;;;9.10;99.90;;;;;;4989814;28;20125;-52
2022/05/02 06:31:15;;;;;;;4.47;2.67;;;9.40;99.90;;;;;;4989708;28;20573;-55
2022/05/02 06:33:44;;;;;;;5.00;3.28;;;9.60;99.90;;;;;;4989186;28;20038;-52
2022/05/02 06:36:29;;;;;;;3.35;1.98;;;9.90;99.90;;;;;;4989903;28;20390;-53
2022/05/02 06:39:02;;;;;;;3.20;1.67;;;10.10;99.90;;;;;;4990207;28;20015;-54
2022/05/02 06:41:49;;;;;;;2.00;1.65;;;10.30;99.90;;;;;;4989460;28;20038;-55
2022/05/02 06:44:32;;;;;;;1.70;1.50;;;10.60;99.90;;;;;;4973462;28;20022;-55
2022/05/02 06:47:12;;;;;;;3.70;1.55;;;10.80;99.90;;;;;;4989359;28;20038;-54
2022/05/02 06:49:42;;;;;;;1.80;1.30;;;11.10;99.90;;;;;;4989725;28;20053;-54
2022/05/02 06:52:11;;;;;;;1.63;1.50;;;11.30;99.90;;;;;;4989293;28;20089;-55
2022/05/02 06:54:58;;;;;;;2.08;1.33;;;11.50;99.90;;;;;;4989135;28;20489;-54
2022/05/02 06:57:24;;;;;;;2.70;1.10;;;11.80;99.90;;;;;;4989446;28;20022;-55
2022/05/02 07:00:06;;;;;;;2.42;1.48;;;12.00;99.90;;;;;;4989862;28;20398;-53
2022/05/02 07:02:53;;;;;;;1.50;1.33;;;12.30;99.90;;;;;;4988076;28;20037;-54
2022/05/02 07:05:27;;;;;;;3.55;1.70;;;12.50;99.90;;;;;;4989564;28;20026;-53
2022/05/02 07:08:01;;;;;;;1.55;1.45;;;12.80;98.70;;;;;;4989791;28;20125;-54
2022/05/02 07:10:53;;;;;;;2.20;1.75;;;13.10;98.10;;;;;;4989319;28;20046;-54
2022/05/02 07:13:38;;;;;;;2.67;1.48;;;13.30;96.40;;;;;;4988958;28;20046;-52
2022/05/02 07:16:15;;;;;;;2.53;1.30;;;13.50;98.40;;;;;;4989993;28;20038;-53
2022/05/02 07:18:59;;;;;;;3.00;1.40;;;13.80;97.00;;;;;;4989611;28;20058;-54
2022/05/02 07:21:42;;;;;;;1.63;1.15;;;14.10;96.60;;;;;;4994903;28;20113;-57
2022/05/02 07:24:42;;;;;;;1.83;1.60;;;14.20;93.70;;;;;;5008321;28;20040;-54
2022/05/02 07:27:39;;;;;;;3.17;1.30;;;14.40;92.90;;;;;;4971961;28;20038;-53
2022/05/02 07:30:06;;;;;;;2.10;1.60;;;14.60;93.70;;;;;;4988967;28;20117;-53
2022/05/02 07:32:32;;;;;;;2.38;1.40;;;14.80;92.80;;;;;;4989067;28;20050;-54
2022/05/02 07:35:00;;;;;;;4.88;2.05;;;15.00;92.80;;;;;;4991707;28;20034;-53
2022/05/02 07:37:25;;;;;;;1.80;1.48;;;15.20;93.90;;;;;;4992901;28;20031;-57
2022/05/02 07:39:52;;;;;;;3.30;1.90;;;15.30;92.30;;;;;;4992135;28;20050;-51
2022/05/02 07:42:22;;;;;;;1.75;1.48;;;15.50;93.80;;;;;;4992353;28;20281;-56
2022/05/02 07:44:51;;;;;;;2.72;2.10;;;15.70;93.80;;;;;;4992495;28;20030;-52
2022/05/02 07:47:18;;;;;;;2.67;2.05;;;15.90;93.90;;;;;;4992556;28;20033;-56
2022/05/02 07:49:50;;;;;;;3.28;2.10;;;16.00;90.80;;;;;;4992415;28;20080;-52
2022/05/02 07:52:26;;;;;;;5.10;2.42;;;16.20;91.60;;;;;;4992711;28;20035;-54
2022/05/02 07:54:52;;;;;;;;;;;16.40;92.40;;;;;;4991965;28;20073;-52
2022/05/02 07:57:20;;;;;;;2.83;2.47;;;16.40;90.30;;;;;;4992999;28;19909;-56
2022/05/02 07:59:51;;;;;;;3.38;2.80;;;16.60;90.10;;;;;;4992680;28;20380;-53
2022/05/02 08:02:18;;;;;;;2.65;2.45;;;16.60;91.60;;;;;;4992163;28;20029;-52
2022/05/02 08:04:45;;;;;;;4.03;2.60;;;16.90;91.40;;;;;;4992263;28;20490;-55
2022/05/02 08:07:13;;;;;;;4.57;2.45;;;17.10;90.40;;;;;;4992662;28;20169;-55
2022/05/02 08:10:16;;;;;;;5.55;2.45;;;17.10;88.50;;;;;;4991615;28;20034;-55
2022/05/02 08:13:16;;;;;;;5.30;3.08;;;17.40;88.60;;;;;;4991879;28;20093;-54
2022/05/02 08:15:53;;;;;;;6.50;2.88;;;17.60;83.70;;;;;;4991811;28;20054;-53
2022/05/02 08:18:44;;;;;;;3.45;3.15;;;17.70;84.70;;;;;;4991874;28;20023;-54
2022/05/02 08:21:26;;;;;;;3.42;2.92;;;17.80;87.30;;;;;;4974222;28;20053;-55
2022/05/02 08:27:24;;;;;;;3.60;3.17;;;18.10;77.30;;;;;;4984770;28;20041;-52
2022/05/02 08:30:16;;;;;;;4.70;3.33;;;18.10;83.80;;;;;;4991291;28;20041;-51
2022/05/02 08:33:07;;;;;;;3.63;3.25;;;18.20;76.70;;;;;;4991587;28;20026;-57
2022/05/02 08:36:01;;;;;;;3.25;2.95;;;18.30;79.40;;;;;;4990110;28;20030;-54
2022/05/02 08:38:52;;;;;;;3.42;2.95;;;18.20;77.10;;;;;;4991997;28;20395;-55
2022/05/02 08:41:33;;;;;;;5.28;3.28;;;18.10;74.50;;;;;;4991561;28;20030;-53
2022/05/02 08:44:17;;;;;;;3.53;2.90;;;18.20;72.30;;;;;;4991441;28;20026;-52
2022/05/02 08:47:07;;;;;;;4.28;2.30;;;18.10;72.60;;;;;;4991164;28;20030;-54
2022/05/02 08:49:54;;;;;;;2.78;2.53;;;18.20;70.20;;;;;;4991558;28;20041;-52
2022/05/02 08:52:41;;;;;;;6.85;2.60;;;18.30;70.30;;;;;;4991109;28;20449;-55
2022/05/02 08:55:30;;;;;;;;;;;18.30;71.70;;;;;;4991641;28;20033;-50
2022/05/02 08:58:26;;;;;;;3.75;3.10;;;18.00;70.10;;;;;;4991692;28;19905;-53
2022/05/02 09:01:30;;;;;;;7.85;2.70;;;17.60;69.90;;;;;;4991451;28;20636;-53
2022/05/02 09:04:32;;;;;;;4.78;3.08;;;17.60;68.50;;;;;;4991340;28;20053;-54
2022/05/02 09:06:58;;;;;;;3.90;2.90;;;17.60;71.10;;;;;;4991320;28;20034;-55
2022/05/02 09:10:02;;;;;;;3.10;2.78;;;17.80;72.80;;;;;;4991442;28;20030;-53
2022/05/02 09:13:05;;;;;;;3.50;3.20;;;18.10;72.20;;;;;;4895880;29;20055;-51
2022/05/02 09:16:05;;;;;;;3.65;2.92;;;18.20;71.40;;;;;;4991285;28;20040;-53
2022/05/02 09:18:56;;;;;;;2.92;2.63;;;18.60;71.70;;;;;;4984336;28;20108;-52
2022/05/02 09:21:36;;;;;;;2.90;2.63;;;18.90;75.00;;;;;;4991055;28;20081;-53
2022/05/02 09:24:27;;;;;;;3.90;3.05;;;19.20;76.20;;;;;;4990841;28;20030;-55
2022/05/02 09:27:30;;;;;;;7.97;3.67;;;19.40;68.90;;;;;;4990803;28;20441;-55
2022/05/02 09:30:17;;;;;;;5.63;3.38;;;19.10;68.00;;;;;;4991067;28;20096;-55
2022/05/02 09:33:24;;;;;;;7.78;3.72;;;18.90;68.10;;;;;;4990422;28;20026;-55
2022/05/02 09:35:59;;;;;;;4.20;3.80;;;18.70;68.60;;;;;;4991010;28;20089;-53
2022/05/02 09:38:26;;;;;;;4.55;3.92;;;18.80;69.10;;;;;;4990217;28;20046;-56
2022/05/02 09:41:14;;;;;;;4.35;3.90;;;18.90;73.20;;;;;;4989218;28;20076;-52
2022/05/02 09:50:09;;;;;;;4.90;4.40;;;19.30;68.50;;;;;;4991546;28;20518;-49
2022/05/02 09:52:50;;;;;;;6.43;4.35;;;18.70;65.80;;;;;;4990255;28;20026;-46
2022/05/02 09:59:02;;;;;;;6.03;4.32;;;18.10;70.30;;;;;;4989482;28;20110;-44
2022/05/02 10:01:31;;;;;;;5.78;4.90;;;18.30;69.20;;;;;;4988455;28;20022;-47
2022/05/02 10:04:24;;;;;;;4.88;4.47;;;18.30;68.80;;;;;;4989831;28;20518;-45
2022/05/02 10:06:51;;;;;;;6.07;4.20;;;17.80;70.30;;;;;;4972443;28;20038;-47
2022/05/02 10:09:48;;;;;;;4.80;4.03;;;17.40;70.30;;;;;;4989753;28;20030;-50
2022/05/02 10:12:26;;;;;;;7.50;4.22;;;17.70;74.20;;;;;;4988853;28;20034;-49
2022/05/02 10:15:00;;;;;;;4.55;4.15;;;18.20;71.10;;;;;;4990262;28;20058;-49
2022/05/02 10:17:29;;;;;;;4.93;4.30;;;18.40;71.30;;;;;;4970729;28;20023;-47
2022/05/02 10:20:09;;;;;;;6.10;4.85;;;18.40;70.50;;;;;;4953218;28;20497;-47
2022/05/02 10:23:15;;;;;;;5.80;4.30;;;18.50;72.80;;;;;;4989318;28;20046;-44
2022/05/02 10:25:50;;;;;;;4.22;3.85;;;18.70;69.20;;;;;;4986303;28;20034;-45
2022/05/02 10:28:59;;;;;;;7.00;4.65;;;18.10;68.20;;;;;;4989745;28;20034;-47
2022/05/02 10:31:25;;;;;;;4.78;4.25;;;18.30;71.90;;;;;;4933872;28;20120;-43
2022/05/02 10:33:53;;;;;;;6.57;4.07;;;18.50;69.10;;;;;;4970713;28;20054;-44
2022/05/02 10:36:20;;;;;;;4.75;3.85;;;18.30;69.20;;;;;;4970472;28;20027;-48
2022/05/02 10:38:51;;;;;;;9.88;4.78;;;18.30;68.20;;;;;;4970432;28;20027;-47
2022/05/02 10:41:23;;;;;;;7.00;4.63;;;17.80;67.90;;;;;;4970795;28;20134;-46
2022/05/02 10:43:53;;;;;;;14.07;5.07;;;17.50;69.40;;;;;;4970235;28;20030;-45
2022/05/02 10:46:21;;;;;;;15.02;4.60;;;17.40;69.50;;;;;;4970346;28;20027;-49
2022/05/02 10:49:20;;;;;;;9.35;4.75;;;17.00;68.60;;;;;;4970625;28;20158;-45
2022/05/02 10:52:02;;;;;;;4.97;4.20;;;16.80;69.20;;;;;;4952872;28;20106;-46
2022/05/02 10:54:42;;;;;;;4.90;4.00;;;17.10;71.60;;;;;;4953141;28;20030;-45
2022/05/02 10:57:31;;;;;;;4.45;3.97;;;17.40;70.70;;;;;;4970500;28;20023;-44
2022/05/02 11:00:06;;;;;;;6.90;5.28;;;17.60;69.70;;;;;;4958619;28;20065;-45
2022/05/02 11:02:47;;;;;;;5.65;5.00;;;17.60;68.50;;;;;;4969695;28;20410;-45
2022/05/02 11:05:25;;;;;;;4.90;4.43;;;17.70;70.20;;;;;;4970559;28;20030;-49
2022/05/02 11:07:56;;;;;;;9.45;5.95;;;17.70;69.40;;;;;;4971233;28;20548;-45
2022/05/02 11:10:27;;;;;;;7.28;4.07;;;17.80;70.40;;;;;;4974750;28;20034;-46
2022/05/02 11:13:05;;;;;;;5.63;4.25;;;17.80;69.40;;;;;;4956350;28;20039;-45
2022/05/02 11:15:52;;;;;;;4.50;4.10;;;18.00;70.30;;;;;;4975175;28;20045;-45
2022/05/02 11:21:39;;;;;;;4.57;4.03;;;18.10;74.50;;;;;;4980087;28;19924;-45
2022/05/02 11:24:33;;;;;;;6.00;4.80;;;18.10;70.10;;;;;;4983337;28;20549;-46
2022/05/02 11:27:17;;;;;;;5.20;4.70;;;18.00;70.40;;;;;;4992732;28;20033;-45
2022/05/02 11:30:02;;;;;;;11.40;5.35;;;17.90;69.10;;;;;;4992719;28;20850;-48
2022/05/02 11:32:53;;;;;;;4.35;3.95;;;17.80;70.80;;;;;;4992779;28;20573;-48
2022/05/02 11:35:30;;;;;;;5.40;4.05;;;17.60;71.30;;;;;;4992185;28;20445;-47
2022/05/02 11:38:11;;;;;;;4.85;4.32;;;17.30;69.90;;;;;;4992535;28;20029;-46
2022/05/02 11:40:46;;;;;;;5.60;4.07;;;17.20;70.80;;;;;;4992517;28;20032;-48
2022/05/02 11:43:17;;;;;;;6.97;4.30;;;17.10;70.30;;;;;;4991891;28;20589;-46
2022/05/02 11:45:47;;;;;;;4.55;4.15;;;16.70;71.40;;;;;;4992405;28;20890;-47
2022/05/02 11:48:50;;;;;;;5.00;4.55;;;16.60;71.60;;;;;;4993167;28;20537;-46
2022/05/02 11:51:38;;;;;;;6.18;5.10;;;16.60;73.90;;;;;;4973171;28;20081;-44
2022/05/02 11:54:31;;;;;;;5.55;4.53;;;16.90;73.80;;;;;;4989738;28;20066;-46
2022/05/02 11:57:17;;;;;;;4.88;4.32;;;17.20;75.40;;;;;;4974009;28;20034;-49
2022/05/02 12:00:29;;;;;;;5.15;4.65;;;17.50;73.40;;;;;;4973312;28;20039;-47
2022/05/02 12:03:14;;;;;;;4.95;4.35;;;17.60;72.00;;;;;;4979446;28;20039;-46
2022/05/02 12:05:42;;;;;;;11.07;4.82;;;17.60;73.10;;;;;;4992513;28;20224;-47
2022/05/02 12:08:10;;;;;;;6.00;4.18;;;17.40;72.00;;;;;;4992384;28;20022;-46
2022/05/02 12:10:47;;;;;;;9.07;4.72;;;17.50;73.90;;;;;;4992407;28;20398;-43
2022/05/02 12:13:15;;;;;;;5.78;4.97;;;17.30;72.30;;;;;;4990874;28;20046;-44
2022/05/02 12:16:01;;;;;;;10.32;5.15;;;17.40;70.40;;;;;;4993451;28;20522;-45
2022/05/02 12:18:43;;;;;;;5.83;4.50;;;17.50;72.20;;;;;;4980755;28;20037;-44
2022/05/02 12:21:15;;;;;;;6.03;3.95;;;17.80;74.20;;;;;;4991989;28;20439;-44
2022/05/02 12:23:42;;;;;;;5.75;5.13;;;18.20;74.30;;;;;;4991635;28;20121;-43
2022/05/02 12:26:18;;;;;;;5.32;4.82;;;18.10;71.10;;;;;;4957262;28;20045;-43
2022/05/02 12:28:47;;;;;;;;;;;18.00;72.70;;;;;;4992555;28;20026;-42
2022/05/02 12:31:15;;;;;;;5.00;4.40;;;17.90;71.30;;;;;;4991230;28;19964;-42
2022/05/02 12:33:43;;;;;;;5.70;4.65;;;17.80;71.40;;;;;;4990703;28;20035;-43
2022/05/02 12:36:17;;;;;;;5.68;4.80;;;17.80;74.00;;;;;;4989596;28;20526;-42
2022/05/02 12:39:00;;;;;;;7.03;5.05;;;17.90;72.30;;;;;;4992038;28;20646;-44
2022/05/02 12:41:29;;;;;;;5.72;4.50;;;17.70;71.10;;;;;;4990686;28;20026;-43
2022/05/02 12:44:06;;;;;;;6.22;5.10;;;17.30;71.50;;;;;;4974438;28;20033;-45
2022/05/02 12:46:38;;;;;;;6.00;4.63;;;17.00;73.50;;;;;;4991563;28;20026;-47
2022/05/02 12:49:05;;;;;;;5.97;4.85;;;17.00;74.00;;;;;;4974445;28;20030;-46
2022/05/02 12:51:35;;;;;;;6.20;4.70;;;16.90;72.80;;;;;;4990858;28;20101;-46
2022/05/02 12:54:13;;;;;;;8.75;4.50;;;16.70;74.20;;;;;;4991358;28;20040;-45
2022/05/02 13:02:37;;;;;;;6.38;4.40;;;16.70;74.40;;;;;;4984884;28;20030;-47
2022/05/02 13:05:18;;;;;;;6.03;4.80;;;16.90;75.00;;;;;;4991499;28;20027;-50
2022/05/02 13:07:47;;;;;;;6.90;4.63;;;17.10;75.50;;;;;;4991022;28;20399;-47
2022/05/02 13:10:19;;;;;;;4.93;4.00;;;17.20;75.70;;;;;;4990539;28;20506;-46
2022/05/02 13:13:02;;;;;;;8.77;4.43;;;17.20;76.00;;;;;;4990003;28;20030;-48
2022/05/02 13:15:30;;;;;;;5.70;4.38;;;17.50;73.60;;;;;;4991153;28;20065;-46
2022/05/02 13:18:02;;;;;;;6.38;4.55;;;17.70;75.70;;;;;;4990142;28;20042;-45
2022/05/02 13:20:29;;;;;;;6.93;4.82;;;17.80;73.20;;;;;;4991059;28;20395;-51
2022/05/02 13:23:17;;;;;;;4.32;3.92;;;17.90;74.20;;;;;;4990159;28;20037;-48
2022/05/02 13:26:00;;;;;;;6.82;4.93;;;18.00;73.00;;;;;;4991163;28;20062;-47
2022/05/02 13:29:08;;;;;;;4.00;3.60;;;17.80;72.10;;;;;;4990137;28;20453;-47
2022/05/02 13:31:56;;;;;;;11.57;5.30;;;17.80;72.10;;;;;;4989532;28;20022;-52
2022/05/02 13:34:51;;;;;;;4.38;3.72;;;17.90;70.90;;;;;;4990962;28;20023;-49
2022/05/02 13:37:40;;;;;;;4.47;3.83;;;17.90;72.30;;;;;;4957471;28;20097;-51
2022/05/02 13:40:09;;;;;;;4.15;3.75;;;18.00;71.10;;;;;;4990955;28;20022;-48
2022/05/02 13:42:39;;;;;;;4.15;3.85;;;18.10;74.10;;;;;;4990464;28;20434;-50
2022/05/02 13:45:16;;;;;;;4.00;3.53;;;18.20;71.80;;;;;;4990736;28;20061;-50
2022/05/02 13:48:11;;;;;;;4.20;3.80;;;18.60;71.10;;;;;;4990310;28;20037;-50
2022/05/02 13:50:47;;;;;;;5.57;3.80;;;18.50;70.40;;;;;;4990566;28;20038;-48
2022/05/02 13:53:26;;;;;;;11.13;4.20;;;18.50;69.60;;;;;;4972178;28;20030;-48
2022/05/02 13:56:18;;;;;;;5.43;3.92;;;18.40;70.90;;;;;;4990677;28;20525;-47
2022/05/02 13:59:15;;;;;;;5.13;4.10;;;18.50;71.00;;;;;;4990675;28;20037;-48
2022/05/02 14:01:59;;;;;;;5.05;4.15;;;18.50;71.20;;;;;;4970781;28;20565;-47